sensor_id;sensor_type;location;lat;lon;timestamp;P1;durP1;ratioP1;P2;durP2;ratioP2
18931;SDS011;9598;50.954;3.112;2024-01-07T00:02:58;4.20;;;3.80;;
18931;SDS011;9598;50.954;3.112;2024-01-07T00:08:02;5.28;;;4.43;;
18931;SDS011;9598;50.954;3.112;2024-01-07T00:13:05;4.82;;;3.92;;
18931;SDS011;9598;50.954;3.112;2024-01-07T00:18:07;4.63;;;4.15;;
18931;SDS011;9598;50.954;3.112;2024-01-07T00:23:10;4.20;;;3.53;;
18931;SDS011;9598;50.954;3.112;2024-01-07T00:28:12;5.47;;;4.25;;
18931;SDS011;9598;50.954;3.112;2024-01-07T00:33:14;5.82;;;4.03;;
18931;SDS011;9598;50.954;3.112;2024-01-07T00:38:18;4.97;;;3.60;;
18931;SDS011;9598;50.954;3.112;2024-01-07T00:43:20;4.43;;;3.85;;
18931;SDS011;9598;50.954;3.112;2024-01-07T00:48:22;4.75;;;3.35;;
18931;SDS011;9598;50.954;3.112;2024-01-07T00:53:27;4.18;;;3.78;;
18931;SDS011;9598;50.954;3.112;2024-01-07T00:58:29;4.30;;;3.90;;
18931;SDS011;9598;50.954;3.112;2024-01-07T01:03:31;4.20;;;3.33;;
18931;SDS011;9598;50.954;3.112;2024-01-07T01:08:35;4.55;;;3.88;;
18931;SDS011;9598;50.954;3.112;2024-01-07T01:13:37;4.95;;;3.92;;
18931;SDS011;9598;50.954;3.112;2024-01-07T01:18:39;4.55;;;4.15;;
18931;SDS011;9598;50.954;3.112;2024-01-07T01:23:43;6.65;;;3.75;;
18931;SDS011;9598;50.954;3.112;2024-01-07T01:28:45;5.05;;;4.15;;
18931;SDS011;9598;50.954;3.112;2024-01-07T01:33:48;5.70;;;4.20;;
18931;SDS011;9598;50.954;3.112;2024-01-07T01:38:51;6.47;;;4.43;;
18931;SDS011;9598;50.954;3.112;2024-01-07T01:43:56;5.05;;;4.53;;
18931;SDS011;9598;50.954;3.112;2024-01-07T01:48:58;4.13;;;3.72;;
18931;SDS011;9598;50.954;3.112;2024-01-07T01:54:03;6.45;;;4.25;;
18931;SDS011;9598;50.954;3.112;2024-01-07T01:59:05;7.82;;;4.80;;
18931;SDS011;9598;50.954;3.112;2024-01-07T02:04:08;5.10;;;4.22;;
18931;SDS011;9598;50.954;3.112;2024-01-07T02:09:12;5.40;;;4.20;;
18931;SDS011;9598;50.954;3.112;2024-01-07T02:14:14;5.32;;;3.80;;
18931;SDS011;9598;50.954;3.112;2024-01-07T02:19:16;7.07;;;4.07;;
18931;SDS011;9598;50.954;3.112;2024-01-07T02:24:21;3.88;;;3.58;;
18931;SDS011;9598;50.954;3.112;2024-01-07T02:29:23;7.15;;;3.85;;
18931;SDS011;9598;50.954;3.112;2024-01-07T02:34:25;4.93;;;3.88;;
18931;SDS011;9598;50.954;3.112;2024-01-07T02:39:28;5.45;;;4.18;;
18931;SDS011;9598;50.954;3.112;2024-01-07T02:44:31;5.68;;;4.40;;
18931;SDS011;9598;50.954;3.112;2024-01-07T02:49:33;7.85;;;4.60;;
18931;SDS011;9598;50.954;3.112;2024-01-07T02:54:36;7.97;;;4.15;;
18931;SDS011;9598;50.954;3.112;2024-01-07T02:59:38;9.82;;;4.88;;
18931;SDS011;9598;50.954;3.112;2024-01-07T03:04:40;5.97;;;4.75;;
18931;SDS011;9598;50.954;3.112;2024-01-07T03:09:44;7.28;;;4.80;;
18931;SDS011;9598;50.954;3.112;2024-01-07T03:14:46;6.57;;;4.75;;
18931;SDS011;9598;50.954;3.112;2024-01-07T03:19:48;7.90;;;5.32;;
18931;SDS011;9598;50.954;3.112;2024-01-07T03:24:51;6.32;;;4.45;;
18931;SDS011;9598;50.954;3.112;2024-01-07T03:29:53;11.02;;;5.43;;
18931;SDS011;9598;50.954;3.112;2024-01-07T03:34:55;6.53;;;4.65;;
18931;SDS011;9598;50.954;3.112;2024-01-07T03:39:59;8.43;;;5.03;;
18931;SDS011;9598;50.954;3.112;2024-01-07T03:45:01;7.75;;;5.80;;
18931;SDS011;9598;50.954;3.112;2024-01-07T03:50:03;8.00;;;6.28;;
18931;SDS011;9598;50.954;3.112;2024-01-07T03:55:08;9.70;;;6.82;;
18931;SDS011;9598;50.954;3.112;2024-01-07T04:00:10;7.53;;;6.20;;
18931;SDS011;9598;50.954;3.112;2024-01-07T04:05:12;8.10;;;6.18;;
18931;SDS011;9598;50.954;3.112;2024-01-07T04:10:16;8.57;;;5.97;;
18931;SDS011;9598;50.954;3.112;2024-01-07T04:15:19;6.90;;;6.15;;
18931;SDS011;9598;50.954;3.112;2024-01-07T04:20:22;8.38;;;6.85;;
18931;SDS011;9598;50.954;3.112;2024-01-07T04:25:25;9.05;;;7.75;;
18931;SDS011;9598;50.954;3.112;2024-01-07T04:30:27;10.75;;;7.50;;
18931;SDS011;9598;50.954;3.112;2024-01-07T04:35:29;10.18;;;7.88;;
18931;SDS011;9598;50.954;3.112;2024-01-07T04:40:33;9.57;;;8.15;;
18931;SDS011;9598;50.954;3.112;2024-01-07T04:45:35;9.60;;;8.60;;
18931;SDS011;9598;50.954;3.112;2024-01-07T04:50:37;9.48;;;7.85;;
18931;SDS011;9598;50.954;3.112;2024-01-07T04:55:41;12.00;;;9.32;;
18931;SDS011;9598;50.954;3.112;2024-01-07T05:00:43;14.20;;;9.90;;
18931;SDS011;9598;50.954;3.112;2024-01-07T05:05:45;12.30;;;10.85;;
18931;SDS011;9598;50.954;3.112;2024-01-07T05:10:49;14.38;;;9.90;;
18931;SDS011;9598;50.954;3.112;2024-01-07T05:15:51;24.05;;;21.73;;
18931;SDS011;9598;50.954;3.112;2024-01-07T05:20:54;56.38;;;45.95;;
18931;SDS011;9598;50.954;3.112;2024-01-07T05:25:59;32.15;;;27.25;;
18931;SDS011;9598;50.954;3.112;2024-01-07T05:31:01;23.33;;;17.55;;
18931;SDS011;9598;50.954;3.112;2024-01-07T05:36:03;13.43;;;11.73;;
18931;SDS011;9598;50.954;3.112;2024-01-07T05:41:07;33.40;;;27.05;;
18931;SDS011;9598;50.954;3.112;2024-01-07T05:46:09;16.38;;;14.32;;
18931;SDS011;9598;50.954;3.112;2024-01-07T05:51:12;19.73;;;17.60;;
18931;SDS011;9598;50.954;3.112;2024-01-07T05:56:16;22.55;;;18.15;;
18931;SDS011;9598;50.954;3.112;2024-01-07T06:01:18;20.27;;;18.10;;
18931;SDS011;9598;50.954;3.112;2024-01-07T06:06:21;23.13;;;20.10;;
18931;SDS011;9598;50.954;3.112;2024-01-07T06:11:25;20.63;;;16.70;;
18931;SDS011;9598;50.954;3.112;2024-01-07T06:16:27;19.73;;;17.73;;
18931;SDS011;9598;50.954;3.112;2024-01-07T06:21:29;22.40;;;20.00;;
18931;SDS011;9598;50.954;3.112;2024-01-07T06:26:32;19.65;;;17.60;;
18931;SDS011;9598;50.954;3.112;2024-01-07T06:31:34;17.65;;;15.68;;
18931;SDS011;9598;50.954;3.112;2024-01-07T06:36:37;18.67;;;16.50;;
18931;SDS011;9598;50.954;3.112;2024-01-07T06:41:40;19.17;;;17.17;;
18931;SDS011;9598;50.954;3.112;2024-01-07T06:46:42;19.05;;;17.05;;
18931;SDS011;9598;50.954;3.112;2024-01-07T06:51:44;19.95;;;16.67;;
18931;SDS011;9598;50.954;3.112;2024-01-07T06:56:48;21.05;;;18.65;;
18931;SDS011;9598;50.954;3.112;2024-01-07T07:01:50;18.20;;;16.13;;
18931;SDS011;9598;50.954;3.112;2024-01-07T07:06:53;18.65;;;16.17;;
18931;SDS011;9598;50.954;3.112;2024-01-07T07:11:58;22.23;;;18.63;;
18931;SDS011;9598;50.954;3.112;2024-01-07T07:17:01;20.02;;;17.63;;
18931;SDS011;9598;50.954;3.112;2024-01-07T07:22:03;20.65;;;18.33;;
18931;SDS011;9598;50.954;3.112;2024-01-07T07:27:07;20.48;;;18.42;;
18931;SDS011;9598;50.954;3.112;2024-01-07T07:32:09;26.65;;;22.15;;
18931;SDS011;9598;50.954;3.112;2024-01-07T07:37:11;24.23;;;20.88;;
18931;SDS011;9598;50.954;3.112;2024-01-07T07:42:15;25.08;;;22.40;;
18931;SDS011;9598;50.954;3.112;2024-01-07T07:47:18;32.13;;;26.85;;
18931;SDS011;9598;50.954;3.112;2024-01-07T07:52:21;32.90;;;25.92;;
18931;SDS011;9598;50.954;3.112;2024-01-07T07:57:27;31.40;;;25.83;;
18931;SDS011;9598;50.954;3.112;2024-01-07T08:02:29;33.15;;;25.75;;
18931;SDS011;9598;50.954;3.112;2024-01-07T08:07:31;27.48;;;23.50;;
18931;SDS011;9598;50.954;3.112;2024-01-07T08:12:35;25.88;;;21.60;;
18931;SDS011;9598;50.954;3.112;2024-01-07T08:17:37;23.95;;;19.90;;
18931;SDS011;9598;50.954;3.112;2024-01-07T08:22:39;24.73;;;19.58;;
18931;SDS011;9598;50.954;3.112;2024-01-07T08:27:42;23.35;;;19.15;;
18931;SDS011;9598;50.954;3.112;2024-01-07T08:32:45;23.15;;;19.73;;
18931;SDS011;9598;50.954;3.112;2024-01-07T08:37:47;21.13;;;18.70;;
18931;SDS011;9598;50.954;3.112;2024-01-07T08:42:51;22.63;;;19.27;;
18931;SDS011;9598;50.954;3.112;2024-01-07T08:47:53;22.58;;;19.67;;
18931;SDS011;9598;50.954;3.112;2024-01-07T08:52:55;22.98;;;20.52;;
18931;SDS011;9598;50.954;3.112;2024-01-07T08:57:59;20.73;;;18.10;;
18931;SDS011;9598;50.954;3.112;2024-01-07T09:03:01;21.85;;;19.48;;
18931;SDS011;9598;50.954;3.112;2024-01-07T09:08:03;20.05;;;17.98;;
18931;SDS011;9598;50.954;3.112;2024-01-07T09:13:08;19.35;;;17.23;;
18931;SDS011;9598;50.954;3.112;2024-01-07T09:18:10;18.60;;;15.40;;
18931;SDS011;9598;50.954;3.112;2024-01-07T09:23:13;20.30;;;16.38;;
18931;SDS011;9598;50.954;3.112;2024-01-07T09:28:17;18.20;;;15.52;;
18931;SDS011;9598;50.954;3.112;2024-01-07T09:33:19;17.60;;;14.85;;
18931;SDS011;9598;50.954;3.112;2024-01-07T09:38:23;18.10;;;15.43;;
18931;SDS011;9598;50.954;3.112;2024-01-07T09:43:27;21.08;;;17.27;;
18931;SDS011;9598;50.954;3.112;2024-01-07T09:48:29;19.63;;;16.92;;
18931;SDS011;9598;50.954;3.112;2024-01-07T09:53:31;19.33;;;15.80;;
18931;SDS011;9598;50.954;3.112;2024-01-07T09:58:38;19.08;;;15.35;;
18931;SDS011;9598;50.954;3.112;2024-01-07T10:03:42;20.45;;;16.13;;
18931;SDS011;9598;50.954;3.112;2024-01-07T10:08:44;18.35;;;16.38;;
18931;SDS011;9598;50.954;3.112;2024-01-07T10:13:48;17.73;;;15.88;;
18931;SDS011;9598;50.954;3.112;2024-01-07T10:18:52;19.05;;;16.02;;
18931;SDS011;9598;50.954;3.112;2024-01-07T10:23:58;19.63;;;15.73;;
18931;SDS011;9598;50.954;3.112;2024-01-07T10:29:11;19.60;;;16.52;;
18931;SDS011;9598;50.954;3.112;2024-01-07T10:34:13;20.55;;;16.90;;
18931;SDS011;9598;50.954;3.112;2024-01-07T10:39:16;19.23;;;15.90;;
18931;SDS011;9598;50.954;3.112;2024-01-07T10:44:19;20.00;;;16.20;;
18931;SDS011;9598;50.954;3.112;2024-01-07T10:49:23;22.63;;;17.45;;
18931;SDS011;9598;50.954;3.112;2024-01-07T10:54:27;19.42;;;16.00;;
18931;SDS011;9598;50.954;3.112;2024-01-07T10:59:32;25.27;;;19.92;;
18931;SDS011;9598;50.954;3.112;2024-01-07T11:04:39;22.52;;;19.00;;
18931;SDS011;9598;50.954;3.112;2024-01-07T11:09:50;19.88;;;15.45;;
18931;SDS011;9598;50.954;3.112;2024-01-07T11:15:03;22.48;;;18.70;;
18931;SDS011;9598;50.954;3.112;2024-01-07T11:20:06;25.90;;;20.48;;
18931;SDS011;9598;50.954;3.112;2024-01-07T11:25:30;21.58;;;18.05;;
18931;SDS011;9598;50.954;3.112;2024-01-07T11:30:39;23.73;;;20.15;;
18931;SDS011;9598;50.954;3.112;2024-01-07T11:35:54;25.13;;;19.52;;
18931;SDS011;9598;50.954;3.112;2024-01-07T11:40:57;26.05;;;20.35;;
18931;SDS011;9598;50.954;3.112;2024-01-07T11:46:01;29.38;;;21.75;;
18931;SDS011;9598;50.954;3.112;2024-01-07T11:51:04;40.63;;;27.00;;
18931;SDS011;9598;50.954;3.112;2024-01-07T11:56:08;29.23;;;20.77;;
18931;SDS011;9598;50.954;3.112;2024-01-07T12:01:11;35.67;;;24.05;;
18931;SDS011;9598;50.954;3.112;2024-01-07T12:06:16;66.72;;;35.60;;
18931;SDS011;9598;50.954;3.112;2024-01-07T12:11:21;19.08;;;16.90;;
18931;SDS011;9598;50.954;3.112;2024-01-07T12:16:25;23.20;;;18.02;;
18931;SDS011;9598;50.954;3.112;2024-01-07T12:21:27;21.20;;;18.10;;
18931;SDS011;9598;50.954;3.112;2024-01-07T12:26:30;21.27;;;16.50;;
18931;SDS011;9598;50.954;3.112;2024-01-07T12:31:34;21.92;;;17.92;;
18931;SDS011;9598;50.954;3.112;2024-01-07T12:36:38;21.15;;;17.30;;
18931;SDS011;9598;50.954;3.112;2024-01-07T12:41:41;16.77;;;13.15;;
18931;SDS011;9598;50.954;3.112;2024-01-07T12:46:44;24.40;;;17.48;;
18931;SDS011;9598;50.954;3.112;2024-01-07T12:51:48;25.13;;;18.27;;
18931;SDS011;9598;50.954;3.112;2024-01-07T12:56:50;21.60;;;17.83;;
18931;SDS011;9598;50.954;3.112;2024-01-07T13:01:54;21.00;;;17.00;;
18931;SDS011;9598;50.954;3.112;2024-01-07T13:06:56;22.27;;;19.17;;
18931;SDS011;9598;50.954;3.112;2024-01-07T13:11:58;22.60;;;18.45;;
18931;SDS011;9598;50.954;3.112;2024-01-07T13:17:02;25.60;;;19.45;;
18931;SDS011;9598;50.954;3.112;2024-01-07T13:22:05;21.60;;;17.90;;
18931;SDS011;9598;50.954;3.112;2024-01-07T13:27:08;26.67;;;19.83;;
18931;SDS011;9598;50.954;3.112;2024-01-07T13:32:12;31.30;;;24.40;;
18931;SDS011;9598;50.954;3.112;2024-01-07T13:37:15;37.15;;;26.48;;
18931;SDS011;9598;50.954;3.112;2024-01-07T13:42:17;28.30;;;20.50;;
18931;SDS011;9598;50.954;3.112;2024-01-07T13:47:20;21.90;;;18.45;;
18931;SDS011;9598;50.954;3.112;2024-01-07T13:52:23;19.23;;;17.02;;
18931;SDS011;9598;50.954;3.112;2024-01-07T13:57:25;23.13;;;18.08;;
18931;SDS011;9598;50.954;3.112;2024-01-07T14:02:28;22.50;;;19.00;;
18931;SDS011;9598;50.954;3.112;2024-01-07T14:07:30;22.42;;;18.75;;
18931;SDS011;9598;50.954;3.112;2024-01-07T14:12:33;21.02;;;17.10;;
18931;SDS011;9598;50.954;3.112;2024-01-07T14:17:36;22.50;;;18.83;;
18931;SDS011;9598;50.954;3.112;2024-01-07T14:22:39;19.42;;;17.30;;
18931;SDS011;9598;50.954;3.112;2024-01-07T14:27:42;17.35;;;15.00;;
18931;SDS011;9598;50.954;3.112;2024-01-07T14:32:46;21.02;;;17.75;;
18931;SDS011;9598;50.954;3.112;2024-01-07T14:37:48;19.20;;;17.17;;
18931;SDS011;9598;50.954;3.112;2024-01-07T14:42:50;16.98;;;15.07;;
18931;SDS011;9598;50.954;3.112;2024-01-07T14:47:56;19.23;;;16.98;;
18931;SDS011;9598;50.954;3.112;2024-01-07T14:52:58;18.95;;;16.92;;
18931;SDS011;9598;50.954;3.112;2024-01-07T14:58:00;18.63;;;16.73;;
18931;SDS011;9598;50.954;3.112;2024-01-07T15:03:04;16.67;;;14.98;;
18931;SDS011;9598;50.954;3.112;2024-01-07T15:08:06;17.60;;;15.13;;
18931;SDS011;9598;50.954;3.112;2024-01-07T15:13:08;14.70;;;13.20;;
18931;SDS011;9598;50.954;3.112;2024-01-07T15:18:12;16.67;;;14.93;;
18931;SDS011;9598;50.954;3.112;2024-01-07T15:23:14;17.25;;;15.23;;
18931;SDS011;9598;50.954;3.112;2024-01-07T15:28:16;20.33;;;16.20;;
18931;SDS011;9598;50.954;3.112;2024-01-07T15:33:20;25.70;;;21.13;;
18931;SDS011;9598;50.954;3.112;2024-01-07T15:38:22;30.90;;;24.75;;
18931;SDS011;9598;50.954;3.112;2024-01-07T15:43:25;20.65;;;18.42;;
18931;SDS011;9598;50.954;3.112;2024-01-07T15:48:29;18.73;;;15.30;;
18931;SDS011;9598;50.954;3.112;2024-01-07T15:53:32;17.20;;;13.98;;
18931;SDS011;9598;50.954;3.112;2024-01-07T15:58:34;26.17;;;18.92;;
18931;SDS011;9598;50.954;3.112;2024-01-07T16:03:38;26.23;;;19.48;;
18931;SDS011;9598;50.954;3.112;2024-01-07T16:08:40;25.58;;;18.30;;
18931;SDS011;9598;50.954;3.112;2024-01-07T16:13:42;29.08;;;19.65;;
18931;SDS011;9598;50.954;3.112;2024-01-07T16:18:46;21.85;;;18.15;;
18931;SDS011;9598;50.954;3.112;2024-01-07T16:23:48;18.25;;;14.63;;
18931;SDS011;9598;50.954;3.112;2024-01-07T16:28:50;56.25;;;29.33;;
18931;SDS011;9598;50.954;3.112;2024-01-07T16:33:54;22.55;;;16.33;;
18931;SDS011;9598;50.954;3.112;2024-01-07T16:38:56;78.88;;;39.95;;
18931;SDS011;9598;50.954;3.112;2024-01-07T16:43:59;32.67;;;22.55;;
18931;SDS011;9598;50.954;3.112;2024-01-07T16:49:03;12.85;;;11.32;;
18931;SDS011;9598;50.954;3.112;2024-01-07T16:54:05;10.60;;;9.25;;
18931;SDS011;9598;50.954;3.112;2024-01-07T16:59:08;12.45;;;10.25;;
18931;SDS011;9598;50.954;3.112;2024-01-07T17:04:12;14.95;;;10.65;;
18931;SDS011;9598;50.954;3.112;2024-01-07T17:09:14;12.38;;;11.13;;
18931;SDS011;9598;50.954;3.112;2024-01-07T17:14:17;11.68;;;10.57;;
18931;SDS011;9598;50.954;3.112;2024-01-07T17:19:21;12.15;;;9.93;;
18931;SDS011;9598;50.954;3.112;2024-01-07T17:24:23;9.43;;;7.97;;
18931;SDS011;9598;50.954;3.112;2024-01-07T17:29:25;6.50;;;5.20;;
18931;SDS011;9598;50.954;3.112;2024-01-07T17:34:29;7.57;;;6.88;;
18931;SDS011;9598;50.954;3.112;2024-01-07T17:39:31;5.80;;;5.20;;
18931;SDS011;9598;50.954;3.112;2024-01-07T17:44:33;6.60;;;5.78;;
18931;SDS011;9598;50.954;3.112;2024-01-07T17:49:37;6.60;;;6.00;;
18931;SDS011;9598;50.954;3.112;2024-01-07T17:54:39;4.88;;;4.47;;
18931;SDS011;9598;50.954;3.112;2024-01-07T17:59:41;5.97;;;5.38;;
18931;SDS011;9598;50.954;3.112;2024-01-07T18:04:45;7.03;;;6.43;;
18931;SDS011;9598;50.954;3.112;2024-01-07T18:09:47;3.83;;;3.05;;
18931;SDS011;9598;50.954;3.112;2024-01-07T18:14:50;6.47;;;4.78;;
18931;SDS011;9598;50.954;3.112;2024-01-07T18:19:54;5.88;;;5.25;;
18931;SDS011;9598;50.954;3.112;2024-01-07T18:24:56;5.78;;;5.28;;
18931;SDS011;9598;50.954;3.112;2024-01-07T18:29:58;5.88;;;5.28;;
18931;SDS011;9598;50.954;3.112;2024-01-07T18:35:02;13.75;;;12.55;;
18931;SDS011;9598;50.954;3.112;2024-01-07T18:40:05;11.40;;;10.50;;
18931;SDS011;9598;50.954;3.112;2024-01-07T18:45:09;12.60;;;11.43;;
18931;SDS011;9598;50.954;3.112;2024-01-07T18:50:13;4.93;;;4.25;;
18931;SDS011;9598;50.954;3.112;2024-01-07T18:55:19;4.78;;;4.28;;
18931;SDS011;9598;50.954;3.112;2024-01-07T19:00:23;5.35;;;4.85;;
18931;SDS011;9598;50.954;3.112;2024-01-07T19:05:27;5.90;;;4.47;;
18931;SDS011;9598;50.954;3.112;2024-01-07T19:10:29;5.07;;;4.32;;
18931;SDS011;9598;50.954;3.112;2024-01-07T19:15:31;6.07;;;5.57;;
18931;SDS011;9598;50.954;3.112;2024-01-07T19:20:34;6.85;;;5.78;;
18931;SDS011;9598;50.954;3.112;2024-01-07T19:25:36;8.32;;;5.30;;
18931;SDS011;9598;50.954;3.112;2024-01-07T19:30:39;7.00;;;4.90;;
18931;SDS011;9598;50.954;3.112;2024-01-07T19:35:43;5.75;;;3.78;;
18931;SDS011;9598;50.954;3.112;2024-01-07T19:40:45;4.68;;;4.20;;
18931;SDS011;9598;50.954;3.112;2024-01-07T19:45:47;10.27;;;9.35;;
18931;SDS011;9598;50.954;3.112;2024-01-07T19:50:52;7.70;;;6.88;;
18931;SDS011;9598;50.954;3.112;2024-01-07T19:55:54;4.60;;;4.07;;
18931;SDS011;9598;50.954;3.112;2024-01-07T20:00:56;4.40;;;4.00;;
18931;SDS011;9598;50.954;3.112;2024-01-07T20:06:00;4.65;;;4.10;;
18931;SDS011;9598;50.954;3.112;2024-01-07T20:11:02;5.72;;;5.03;;
18931;SDS011;9598;50.954;3.112;2024-01-07T20:16:05;4.47;;;4.13;;
18931;SDS011;9598;50.954;3.112;2024-01-07T20:21:17;4.75;;;4.32;;
18931;SDS011;9598;50.954;3.112;2024-01-07T20:26:21;5.28;;;4.78;;
18931;SDS011;9598;50.954;3.112;2024-01-07T20:31:23;6.97;;;5.18;;
18931;SDS011;9598;50.954;3.112;2024-01-07T20:36:27;5.68;;;5.05;;
18931;SDS011;9598;50.954;3.112;2024-01-07T20:41:29;5.15;;;4.40;;
18931;SDS011;9598;50.954;3.112;2024-01-07T20:46:33;5.68;;;4.60;;
18931;SDS011;9598;50.954;3.112;2024-01-07T20:51:37;4.93;;;4.45;;
18931;SDS011;9598;50.954;3.112;2024-01-07T20:56:39;5.80;;;4.78;;
18931;SDS011;9598;50.954;3.112;2024-01-07T21:01:41;6.18;;;4.32;;
18931;SDS011;9598;50.954;3.112;2024-01-07T21:06:46;5.70;;;3.70;;
18931;SDS011;9598;50.954;3.112;2024-01-07T21:11:49;5.93;;;4.55;;
18931;SDS011;9598;50.954;3.112;2024-01-07T21:16:52;5.85;;;4.40;;
18931;SDS011;9598;50.954;3.112;2024-01-07T21:21:55;8.27;;;7.53;;
18931;SDS011;9598;50.954;3.112;2024-01-07T21:26:57;9.80;;;7.40;;
18931;SDS011;9598;50.954;3.112;2024-01-07T21:31:59;14.88;;;10.95;;
18931;SDS011;9598;50.954;3.112;2024-01-07T21:37:03;14.02;;;12.43;;
18931;SDS011;9598;50.954;3.112;2024-01-07T21:42:05;8.50;;;7.00;;
18931;SDS011;9598;50.954;3.112;2024-01-07T21:47:08;7.22;;;5.80;;
18931;SDS011;9598;50.954;3.112;2024-01-07T21:52:12;10.38;;;7.38;;
18931;SDS011;9598;50.954;3.112;2024-01-07T21:57:14;7.88;;;6.07;;
18931;SDS011;9598;50.954;3.112;2024-01-07T22:02:16;11.45;;;9.52;;
18931;SDS011;9598;50.954;3.112;2024-01-07T22:07:20;10.05;;;7.78;;
18931;SDS011;9598;50.954;3.112;2024-01-07T22:12:22;8.50;;;6.75;;
18931;SDS011;9598;50.954;3.112;2024-01-07T22:17:24;7.75;;;6.68;;
18931;SDS011;9598;50.954;3.112;2024-01-07T22:22:27;6.43;;;5.82;;
18931;SDS011;9598;50.954;3.112;2024-01-07T22:27:29;7.90;;;6.40;;
18931;SDS011;9598;50.954;3.112;2024-01-07T22:32:33;8.45;;;6.65;;
18931;SDS011;9598;50.954;3.112;2024-01-07T22:37:37;6.80;;;6.10;;
18931;SDS011;9598;50.954;3.112;2024-01-07T22:42:39;7.93;;;6.50;;
18931;SDS011;9598;50.954;3.112;2024-01-07T22:47:41;10.70;;;7.25;;
18931;SDS011;9598;50.954;3.112;2024-01-07T22:52:45;9.43;;;7.43;;
18931;SDS011;9598;50.954;3.112;2024-01-07T22:57:47;10.35;;;8.20;;
18931;SDS011;9598;50.954;3.112;2024-01-07T23:02:49;11.20;;;8.55;;
18931;SDS011;9598;50.954;3.112;2024-01-07T23:07:53;11.48;;;8.52;;
18931;SDS011;9598;50.954;3.112;2024-01-07T23:12:55;9.40;;;7.80;;
18931;SDS011;9598;50.954;3.112;2024-01-07T23:17:57;9.35;;;7.63;;
18931;SDS011;9598;50.954;3.112;2024-01-07T23:23:00;9.30;;;8.25;;
18931;SDS011;9598;50.954;3.112;2024-01-07T23:28:03;9.27;;;7.90;;
18931;SDS011;9598;50.954;3.112;2024-01-07T23:33:05;9.27;;;6.55;;
18931;SDS011;9598;50.954;3.112;2024-01-07T23:38:09;7.50;;;6.22;;
18931;SDS011;9598;50.954;3.112;2024-01-07T23:43:11;8.32;;;5.68;;
18931;SDS011;9598;50.954;3.112;2024-01-07T23:48:13;9.48;;;6.22;;
18931;SDS011;9598;50.954;3.112;2024-01-07T23:53:17;6.60;;;5.72;;
18931;SDS011;9598;50.954;3.112;2024-01-07T23:58:19;7.90;;;5.35;;
